sensor_id;sensor_type;location;lat;lon;timestamp;P1;durP1;ratioP1;P2;durP2;ratioP2
32347;SDS011;18821;44.800;10.326;2023-04-06T00:02:13;9.43;;;5.28;;
32347;SDS011;18821;44.800;10.326;2023-04-06T00:04:39;21.50;;;6.70;;
32347;SDS011;18821;44.800;10.326;2023-04-06T00:07:05;12.57;;;5.80;;
32347;SDS011;18821;44.800;10.326;2023-04-06T00:09:30;11.00;;;6.07;;
32347;SDS011;18821;44.800;10.326;2023-04-06T00:11:56;12.95;;;5.70;;
32347;SDS011;18821;44.800;10.326;2023-04-06T00:14:23;10.27;;;5.38;;
32347;SDS011;18821;44.800;10.326;2023-04-06T00:16:49;10.18;;;5.85;;
32347;SDS011;18821;44.800;10.326;2023-04-06T00:19:15;13.93;;;6.72;;
32347;SDS011;18821;44.800;10.326;2023-04-06T00:21:41;12.68;;;6.10;;
32347;SDS011;18821;44.800;10.326;2023-04-06T00:24:07;12.75;;;6.75;;
32347;SDS011;18821;44.800;10.326;2023-04-06T00:26:33;10.63;;;6.25;;
32347;SDS011;18821;44.800;10.326;2023-04-06T00:28:59;16.55;;;7.10;;
32347;SDS011;18821;44.800;10.326;2023-04-06T00:31:25;18.48;;;6.68;;
32347;SDS011;18821;44.800;10.326;2023-04-06T00:33:51;12.45;;;6.07;;
32347;SDS011;18821;44.800;10.326;2023-04-06T00:36:17;13.52;;;6.93;;
32347;SDS011;18821;44.800;10.326;2023-04-06T00:38:43;11.00;;;5.78;;
32347;SDS011;18821;44.800;10.326;2023-04-06T00:41:10;15.02;;;6.28;;
32347;SDS011;18821;44.800;10.326;2023-04-06T00:43:36;12.90;;;6.93;;
32347;SDS011;18821;44.800;10.326;2023-04-06T00:46:02;15.82;;;6.00;;
32347;SDS011;18821;44.800;10.326;2023-04-06T00:48:28;11.65;;;6.80;;
32347;SDS011;18821;44.800;10.326;2023-04-06T00:50:56;14.25;;;6.97;;
32347;SDS011;18821;44.800;10.326;2023-04-06T00:53:23;9.68;;;5.82;;
32347;SDS011;18821;44.800;10.326;2023-04-06T00:55:51;12.10;;;6.07;;
32347;SDS011;18821;44.800;10.326;2023-04-06T00:58:17;11.35;;;6.10;;
32347;SDS011;18821;44.800;10.326;2023-04-06T01:00:48;10.15;;;6.00;;
32347;SDS011;18821;44.800;10.326;2023-04-06T01:03:18;15.82;;;6.30;;
32347;SDS011;18821;44.800;10.326;2023-04-06T01:05:45;20.15;;;5.70;;
32347;SDS011;18821;44.800;10.326;2023-04-06T01:08:21;9.02;;;5.65;;
32347;SDS011;18821;44.800;10.326;2023-04-06T01:10:50;9.70;;;5.88;;
32347;SDS011;18821;44.800;10.326;2023-04-06T01:13:24;14.35;;;5.45;;
32347;SDS011;18821;44.800;10.326;2023-04-06T01:15:57;7.88;;;5.18;;
32347;SDS011;18821;44.800;10.326;2023-04-06T01:18:30;11.02;;;5.40;;
32347;SDS011;18821;44.800;10.326;2023-04-06T01:21:09;7.55;;;5.18;;
32347;SDS011;18821;44.800;10.326;2023-04-06T01:23:44;11.77;;;5.38;;
32347;SDS011;18821;44.800;10.326;2023-04-06T01:28:46;10.65;;;4.80;;
32347;SDS011;18821;44.800;10.326;2023-04-06T01:31:32;8.10;;;4.45;;
32347;SDS011;18821;44.800;10.326;2023-04-06T01:33:58;7.95;;;4.20;;
32347;SDS011;18821;44.800;10.326;2023-04-06T01:36:25;10.10;;;4.90;;
32347;SDS011;18821;44.800;10.326;2023-04-06T01:39:03;7.85;;;3.92;;
32347;SDS011;18821;44.800;10.326;2023-04-06T01:41:34;11.63;;;5.68;;
32347;SDS011;18821;44.800;10.326;2023-04-06T01:44:00;9.85;;;4.45;;
32347;SDS011;18821;44.800;10.326;2023-04-06T01:46:29;8.32;;;5.10;;
32347;SDS011;18821;44.800;10.326;2023-04-06T01:48:55;7.65;;;4.53;;
32347;SDS011;18821;44.800;10.326;2023-04-06T01:51:40;5.45;;;4.15;;
32347;SDS011;18821;44.800;10.326;2023-04-06T01:54:10;10.00;;;4.55;;
32347;SDS011;18821;44.800;10.326;2023-04-06T01:56:54;14.90;;;4.33;;
32347;SDS011;18821;44.800;10.326;2023-04-06T01:59:43;7.90;;;3.88;;
32347;SDS011;18821;44.800;10.326;2023-04-06T02:02:20;8.07;;;4.03;;
32347;SDS011;18821;44.800;10.326;2023-04-06T02:05:07;6.97;;;3.95;;
32347;SDS011;18821;44.800;10.326;2023-04-06T02:07:33;8.77;;;4.53;;
32347;SDS011;18821;44.800;10.326;2023-04-06T02:10:00;11.57;;;5.57;;
32347;SDS011;18821;44.800;10.326;2023-04-06T02:12:34;8.45;;;5.00;;
32347;SDS011;18821;44.800;10.326;2023-04-06T02:15:00;10.90;;;5.57;;
32347;SDS011;18821;44.800;10.326;2023-04-06T02:17:26;10.50;;;5.65;;
32347;SDS011;18821;44.800;10.326;2023-04-06T02:19:53;11.90;;;6.03;;
32347;SDS011;18821;44.800;10.326;2023-04-06T02:22:19;14.20;;;7.70;;
32347;SDS011;18821;44.800;10.326;2023-04-06T02:24:45;14.68;;;6.90;;
32347;SDS011;18821;44.800;10.326;2023-04-06T02:27:12;17.50;;;6.88;;
32347;SDS011;18821;44.800;10.326;2023-04-06T02:29:39;14.52;;;6.75;;
32347;SDS011;18821;44.800;10.326;2023-04-06T02:32:05;14.60;;;7.53;;
32347;SDS011;18821;44.800;10.326;2023-04-06T02:34:32;21.05;;;8.15;;
32347;SDS011;18821;44.800;10.326;2023-04-06T02:36:58;14.55;;;7.85;;
32347;SDS011;18821;44.800;10.326;2023-04-06T02:39:31;14.82;;;7.47;;
32347;SDS011;18821;44.800;10.326;2023-04-06T02:41:58;11.57;;;6.10;;
32347;SDS011;18821;44.800;10.326;2023-04-06T02:44:25;12.90;;;6.50;;
32347;SDS011;18821;44.800;10.326;2023-04-06T02:46:51;13.20;;;6.72;;
32347;SDS011;18821;44.800;10.326;2023-04-06T02:49:19;14.95;;;6.38;;
32347;SDS011;18821;44.800;10.326;2023-04-06T02:51:45;18.23;;;7.38;;
32347;SDS011;18821;44.800;10.326;2023-04-06T02:54:17;13.15;;;6.45;;
32347;SDS011;18821;44.800;10.326;2023-04-06T02:56:43;13.85;;;6.82;;
32347;SDS011;18821;44.800;10.326;2023-04-06T02:59:10;10.13;;;6.20;;
32347;SDS011;18821;44.800;10.326;2023-04-06T03:01:47;11.90;;;6.72;;
32347;SDS011;18821;44.800;10.326;2023-04-06T03:04:13;15.30;;;7.82;;
32347;SDS011;18821;44.800;10.326;2023-04-06T03:06:39;20.48;;;6.85;;
32347;SDS011;18821;44.800;10.326;2023-04-06T03:09:15;19.08;;;6.40;;
32347;SDS011;18821;44.800;10.326;2023-04-06T03:11:43;14.50;;;7.93;;
32347;SDS011;18821;44.800;10.326;2023-04-06T03:14:09;11.25;;;6.63;;
32347;SDS011;18821;44.800;10.326;2023-04-06T03:16:35;16.58;;;7.40;;
32347;SDS011;18821;44.800;10.326;2023-04-06T03:19:01;12.68;;;6.80;;
32347;SDS011;18821;44.800;10.326;2023-04-06T03:21:31;12.85;;;7.00;;
32347;SDS011;18821;44.800;10.326;2023-04-06T03:23:57;17.48;;;6.97;;
32347;SDS011;18821;44.800;10.326;2023-04-06T03:26:25;17.27;;;7.22;;
32347;SDS011;18821;44.800;10.326;2023-04-06T03:28:51;10.43;;;5.97;;
32347;SDS011;18821;44.800;10.326;2023-04-06T03:31:20;18.33;;;7.13;;
32347;SDS011;18821;44.800;10.326;2023-04-06T03:33:53;13.57;;;6.38;;
32347;SDS011;18821;44.800;10.326;2023-04-06T03:36:30;11.20;;;6.32;;
32347;SDS011;18821;44.800;10.326;2023-04-06T03:38:57;10.45;;;5.95;;
32347;SDS011;18821;44.800;10.326;2023-04-06T03:41:23;17.63;;;6.82;;
32347;SDS011;18821;44.800;10.326;2023-04-06T03:44:21;12.48;;;5.72;;
32347;SDS011;18821;44.800;10.326;2023-04-06T03:46:47;10.02;;;5.85;;
32347;SDS011;18821;44.800;10.326;2023-04-06T03:49:14;7.63;;;5.38;;
32347;SDS011;18821;44.800;10.326;2023-04-06T03:51:44;13.73;;;5.20;;
32347;SDS011;18821;44.800;10.326;2023-04-06T03:54:10;11.98;;;5.93;;
32347;SDS011;18821;44.800;10.326;2023-04-06T03:56:36;12.48;;;5.72;;
32347;SDS011;18821;44.800;10.326;2023-04-06T03:59:02;10.30;;;5.22;;
32347;SDS011;18821;44.800;10.326;2023-04-06T04:01:28;8.00;;;5.03;;
32347;SDS011;18821;44.800;10.326;2023-04-06T04:03:54;11.52;;;5.07;;
32347;SDS011;18821;44.800;10.326;2023-04-06T04:06:20;11.60;;;4.47;;
32347;SDS011;18821;44.800;10.326;2023-04-06T04:08:47;7.72;;;3.83;;
32347;SDS011;18821;44.800;10.326;2023-04-06T04:11:12;10.70;;;4.07;;
32347;SDS011;18821;44.800;10.326;2023-04-06T04:13:40;10.10;;;4.10;;
32347;SDS011;18821;44.800;10.326;2023-04-06T04:16:07;8.32;;;4.35;;
32347;SDS011;18821;44.800;10.326;2023-04-06T04:18:34;6.53;;;4.05;;
32347;SDS011;18821;44.800;10.326;2023-04-06T04:21:01;7.80;;;4.35;;
32347;SDS011;18821;44.800;10.326;2023-04-06T04:23:27;6.78;;;3.45;;
32347;SDS011;18821;44.800;10.326;2023-04-06T04:25:53;11.10;;;4.82;;
32347;SDS011;18821;44.800;10.326;2023-04-06T04:28:20;10.10;;;4.38;;
32347;SDS011;18821;44.800;10.326;2023-04-06T04:30:46;10.68;;;3.65;;
32347;SDS011;18821;44.800;10.326;2023-04-06T04:33:13;7.85;;;3.10;;
32347;SDS011;18821;44.800;10.326;2023-04-06T04:35:40;10.25;;;3.63;;
32347;SDS011;18821;44.800;10.326;2023-04-06T04:38:08;5.30;;;2.67;;
32347;SDS011;18821;44.800;10.326;2023-04-06T04:40:38;6.55;;;2.70;;
32347;SDS011;18821;44.800;10.326;2023-04-06T04:43:10;5.50;;;2.97;;
32347;SDS011;18821;44.800;10.326;2023-04-06T04:45:37;8.70;;;3.28;;
32347;SDS011;18821;44.800;10.326;2023-04-06T04:48:13;5.03;;;2.78;;
32347;SDS011;18821;44.800;10.326;2023-04-06T04:50:53;7.63;;;3.28;;
32347;SDS011;18821;44.800;10.326;2023-04-06T04:53:23;5.18;;;2.90;;
32347;SDS011;18821;44.800;10.326;2023-04-06T04:55:52;8.05;;;2.70;;
32347;SDS011;18821;44.800;10.326;2023-04-06T04:58:19;4.88;;;2.65;;
32347;SDS011;18821;44.800;10.326;2023-04-06T05:00:53;7.03;;;2.83;;
32347;SDS011;18821;44.800;10.326;2023-04-06T05:03:24;7.95;;;2.78;;
32347;SDS011;18821;44.800;10.326;2023-04-06T05:05:58;8.13;;;3.10;;
32347;SDS011;18821;44.800;10.326;2023-04-06T05:08:28;14.82;;;3.55;;
32347;SDS011;18821;44.800;10.326;2023-04-06T05:10:55;12.82;;;3.03;;
32347;SDS011;18821;44.800;10.326;2023-04-06T05:13:21;13.93;;;4.03;;
32347;SDS011;18821;44.800;10.326;2023-04-06T05:15:49;6.22;;;2.78;;
32347;SDS011;18821;44.800;10.326;2023-04-06T05:18:34;5.65;;;3.03;;
32347;SDS011;18821;44.800;10.326;2023-04-06T05:21:01;11.45;;;3.58;;
32347;SDS011;18821;44.800;10.326;2023-04-06T05:23:38;9.73;;;3.40;;
32347;SDS011;18821;44.800;10.326;2023-04-06T05:26:04;7.00;;;3.35;;
32347;SDS011;18821;44.800;10.326;2023-04-06T05:28:31;21.50;;;6.85;;
32347;SDS011;18821;44.800;10.326;2023-04-06T05:30:59;10.10;;;5.60;;
32347;SDS011;18821;44.800;10.326;2023-04-06T05:33:31;9.77;;;4.35;;
32347;SDS011;18821;44.800;10.326;2023-04-06T05:36:05;17.02;;;5.10;;
32347;SDS011;18821;44.800;10.326;2023-04-06T05:38:34;8.38;;;4.30;;
32347;SDS011;18821;44.800;10.326;2023-04-06T05:41:09;9.65;;;3.50;;
32347;SDS011;18821;44.800;10.326;2023-04-06T05:43:36;20.02;;;4.18;;
32347;SDS011;18821;44.800;10.326;2023-04-06T05:46:02;12.38;;;4.05;;
32347;SDS011;18821;44.800;10.326;2023-04-06T05:48:28;7.78;;;4.22;;
32347;SDS011;18821;44.800;10.326;2023-04-06T05:50:54;14.80;;;4.38;;
32347;SDS011;18821;44.800;10.326;2023-04-06T05:53:27;8.57;;;3.92;;
32347;SDS011;18821;44.800;10.326;2023-04-06T05:55:57;15.93;;;4.40;;
32347;SDS011;18821;44.800;10.326;2023-04-06T05:58:26;10.50;;;4.10;;
32347;SDS011;18821;44.800;10.326;2023-04-06T06:01:00;15.27;;;3.85;;
32347;SDS011;18821;44.800;10.326;2023-04-06T06:03:35;12.43;;;4.88;;
32347;SDS011;18821;44.800;10.326;2023-04-06T06:06:02;11.90;;;5.00;;
32347;SDS011;18821;44.800;10.326;2023-04-06T06:08:36;17.08;;;5.30;;
32347;SDS011;18821;44.800;10.326;2023-04-06T06:11:07;18.42;;;4.78;;
32347;SDS011;18821;44.800;10.326;2023-04-06T06:13:33;11.60;;;5.70;;
32347;SDS011;18821;44.800;10.326;2023-04-06T06:16:00;13.48;;;5.13;;
32347;SDS011;18821;44.800;10.326;2023-04-06T06:18:31;8.98;;;4.75;;
32347;SDS011;18821;44.800;10.326;2023-04-06T06:20:57;12.82;;;5.65;;
32347;SDS011;18821;44.800;10.326;2023-04-06T06:23:25;16.60;;;6.15;;
32347;SDS011;18821;44.800;10.326;2023-04-06T06:25:52;9.57;;;5.25;;
32347;SDS011;18821;44.800;10.326;2023-04-06T06:28:21;12.57;;;5.72;;
32347;SDS011;18821;44.800;10.326;2023-04-06T06:30:47;11.90;;;5.90;;
32347;SDS011;18821;44.800;10.326;2023-04-06T06:33:19;12.35;;;6.18;;
32347;SDS011;18821;44.800;10.326;2023-04-06T06:35:45;9.95;;;5.13;;
32347;SDS011;18821;44.800;10.326;2023-04-06T06:38:11;12.80;;;5.50;;
32347;SDS011;18821;44.800;10.326;2023-04-06T06:40:37;9.68;;;5.20;;
32347;SDS011;18821;44.800;10.326;2023-04-06T06:43:03;18.10;;;5.82;;
32347;SDS011;18821;44.800;10.326;2023-04-06T06:45:33;12.65;;;6.13;;
32347;SDS011;18821;44.800;10.326;2023-04-06T06:48:00;11.30;;;6.15;;
32347;SDS011;18821;44.800;10.326;2023-04-06T06:50:26;16.08;;;5.97;;
32347;SDS011;18821;44.800;10.326;2023-04-06T06:52:52;12.57;;;6.40;;
32347;SDS011;18821;44.800;10.326;2023-04-06T06:55:18;14.43;;;5.70;;
32347;SDS011;18821;44.800;10.326;2023-04-06T06:57:45;14.15;;;6.28;;
32347;SDS011;18821;44.800;10.326;2023-04-06T07:00:14;12.07;;;5.97;;
32347;SDS011;18821;44.800;10.326;2023-04-06T07:02:42;13.98;;;7.35;;
32347;SDS011;18821;44.800;10.326;2023-04-06T07:05:08;10.80;;;5.85;;
32347;SDS011;18821;44.800;10.326;2023-04-06T07:07:35;17.55;;;6.60;;
32347;SDS011;18821;44.800;10.326;2023-04-06T07:10:01;15.13;;;6.28;;
32347;SDS011;18821;44.800;10.326;2023-04-06T07:12:27;11.35;;;5.68;;
32347;SDS011;18821;44.800;10.326;2023-04-06T07:14:53;10.05;;;5.38;;
32347;SDS011;18821;44.800;10.326;2023-04-06T07:17:20;18.80;;;6.55;;
32347;SDS011;18821;44.800;10.326;2023-04-06T07:19:47;12.65;;;6.50;;
32347;SDS011;18821;44.800;10.326;2023-04-06T07:22:13;14.82;;;6.13;;
32347;SDS011;18821;44.800;10.326;2023-04-06T07:24:39;11.23;;;6.47;;
32347;SDS011;18821;44.800;10.326;2023-04-06T07:27:05;14.45;;;7.05;;
32347;SDS011;18821;44.800;10.326;2023-04-06T07:29:32;12.10;;;5.82;;
32347;SDS011;18821;44.800;10.326;2023-04-06T07:31:59;15.50;;;6.10;;
32347;SDS011;18821;44.800;10.326;2023-04-06T07:34:26;25.23;;;6.13;;
32347;SDS011;18821;44.800;10.326;2023-04-06T07:36:52;11.75;;;5.68;;
32347;SDS011;18821;44.800;10.326;2023-04-06T07:39:19;14.50;;;5.93;;
32347;SDS011;18821;44.800;10.326;2023-04-06T07:41:46;13.52;;;6.57;;
32347;SDS011;18821;44.800;10.326;2023-04-06T07:44:12;16.35;;;5.72;;
32347;SDS011;18821;44.800;10.326;2023-04-06T07:46:38;12.18;;;6.30;;
32347;SDS011;18821;44.800;10.326;2023-04-06T07:49:05;19.52;;;6.80;;
32347;SDS011;18821;44.800;10.326;2023-04-06T07:51:35;18.05;;;6.78;;
32347;SDS011;18821;44.800;10.326;2023-04-06T07:54:03;11.57;;;6.20;;
32347;SDS011;18821;44.800;10.326;2023-04-06T07:56:29;11.73;;;5.57;;
32347;SDS011;18821;44.800;10.326;2023-04-06T07:58:56;11.85;;;5.78;;
32347;SDS011;18821;44.800;10.326;2023-04-06T08:01:23;11.25;;;5.78;;
32347;SDS011;18821;44.800;10.326;2023-04-06T08:03:53;9.52;;;5.32;;
32347;SDS011;18821;44.800;10.326;2023-04-06T08:06:20;13.52;;;5.75;;
32347;SDS011;18821;44.800;10.326;2023-04-06T08:08:46;13.43;;;5.88;;
32347;SDS011;18821;44.800;10.326;2023-04-06T08:11:12;11.25;;;6.35;;
32347;SDS011;18821;44.800;10.326;2023-04-06T08:13:38;14.27;;;5.15;;
32347;SDS011;18821;44.800;10.326;2023-04-06T08:16:04;11.70;;;5.70;;
32347;SDS011;18821;44.800;10.326;2023-04-06T08:18:30;14.95;;;5.80;;
32347;SDS011;18821;44.800;10.326;2023-04-06T08:20:56;12.10;;;5.57;;
32347;SDS011;18821;44.800;10.326;2023-04-06T08:23:22;10.02;;;5.68;;
32347;SDS011;18821;44.800;10.326;2023-04-06T08:25:49;11.63;;;5.63;;
32347;SDS011;18821;44.800;10.326;2023-04-06T08:28:15;9.43;;;5.50;;
32347;SDS011;18821;44.800;10.326;2023-04-06T08:30:41;12.60;;;5.13;;
32347;SDS011;18821;44.800;10.326;2023-04-06T08:33:08;10.57;;;5.15;;
32347;SDS011;18821;44.800;10.326;2023-04-06T08:35:34;14.52;;;5.75;;
32347;SDS011;18821;44.800;10.326;2023-04-06T08:38:00;16.58;;;5.50;;
32347;SDS011;18821;44.800;10.326;2023-04-06T08:40:26;13.60;;;5.72;;
32347;SDS011;18821;44.800;10.326;2023-04-06T08:42:55;9.73;;;4.18;;
32347;SDS011;18821;44.800;10.326;2023-04-06T08:45:22;11.63;;;5.25;;
32347;SDS011;18821;44.800;10.326;2023-04-06T08:47:51;11.75;;;4.53;;
32347;SDS011;18821;44.800;10.326;2023-04-06T08:50:20;9.25;;;4.63;;
32347;SDS011;18821;44.800;10.326;2023-04-06T08:52:47;7.97;;;4.18;;
32347;SDS011;18821;44.800;10.326;2023-04-06T08:55:13;13.27;;;5.13;;
32347;SDS011;18821;44.800;10.326;2023-04-06T08:57:40;8.38;;;4.80;;
32347;SDS011;18821;44.800;10.326;2023-04-06T09:00:07;8.77;;;4.72;;
32347;SDS011;18821;44.800;10.326;2023-04-06T09:02:39;8.93;;;4.40;;
32347;SDS011;18821;44.800;10.326;2023-04-06T09:05:08;7.30;;;3.88;;
32347;SDS011;18821;44.800;10.326;2023-04-06T09:07:37;7.00;;;3.53;;
32347;SDS011;18821;44.800;10.326;2023-04-06T09:10:07;6.15;;;3.20;;
32347;SDS011;18821;44.800;10.326;2023-04-06T09:12:34;7.70;;;3.53;;
32347;SDS011;18821;44.800;10.326;2023-04-06T09:15:00;5.50;;;3.55;;
32347;SDS011;18821;44.800;10.326;2023-04-06T09:17:28;6.35;;;3.60;;
32347;SDS011;18821;44.800;10.326;2023-04-06T09:19:56;6.38;;;3.50;;
32347;SDS011;18821;44.800;10.326;2023-04-06T09:22:22;4.43;;;2.95;;
32347;SDS011;18821;44.800;10.326;2023-04-06T09:24:50;6.45;;;3.33;;
32347;SDS011;18821;44.800;10.326;2023-04-06T09:27:17;7.15;;;3.08;;
32347;SDS011;18821;44.800;10.326;2023-04-06T09:30:02;5.53;;;2.92;;
32347;SDS011;18821;44.800;10.326;2023-04-06T09:32:28;6.97;;;3.28;;
32347;SDS011;18821;44.800;10.326;2023-04-06T09:34:54;5.60;;;3.55;;
32347;SDS011;18821;44.800;10.326;2023-04-06T09:37:34;5.53;;;2.78;;
32347;SDS011;18821;44.800;10.326;2023-04-06T09:40:03;4.75;;;3.03;;
32347;SDS011;18821;44.800;10.326;2023-04-06T09:42:33;9.23;;;2.63;;
32347;SDS011;18821;44.800;10.326;2023-04-06T09:45:02;4.65;;;2.58;;
32347;SDS011;18821;44.800;10.326;2023-04-06T09:47:32;5.40;;;3.13;;
32347;SDS011;18821;44.800;10.326;2023-04-06T09:50:00;4.53;;;3.33;;
32347;SDS011;18821;44.800;10.326;2023-04-06T09:52:32;4.53;;;2.70;;
32347;SDS011;18821;44.800;10.326;2023-04-06T09:55:00;6.18;;;3.25;;
32347;SDS011;18821;44.800;10.326;2023-04-06T09:57:32;4.00;;;2.80;;
32347;SDS011;18821;44.800;10.326;2023-04-06T10:00:06;9.55;;;2.88;;
32347;SDS011;18821;44.800;10.326;2023-04-06T10:02:50;7.07;;;3.08;;
32347;SDS011;18821;44.800;10.326;2023-04-06T10:05:42;7.13;;;3.67;;
32347;SDS011;18821;44.800;10.326;2023-04-06T10:08:26;5.88;;;3.47;;
32347;SDS011;18821;44.800;10.326;2023-04-06T10:10:54;9.60;;;3.05;;
32347;SDS011;18821;44.800;10.326;2023-04-06T10:13:20;8.75;;;3.40;;
32347;SDS011;18821;44.800;10.326;2023-04-06T10:15:49;9.55;;;2.95;;
32347;SDS011;18821;44.800;10.326;2023-04-06T10:18:17;6.15;;;3.35;;
32347;SDS011;18821;44.800;10.326;2023-04-06T10:23:24;5.22;;;2.90;;
32347;SDS011;18821;44.800;10.326;2023-04-06T10:25:59;6.88;;;2.92;;
32347;SDS011;18821;44.800;10.326;2023-04-06T10:28:30;4.03;;;2.58;;
32347;SDS011;18821;44.800;10.326;2023-04-06T10:30:58;7.10;;;3.78;;
32347;SDS011;18821;44.800;10.326;2023-04-06T10:33:25;5.25;;;3.42;;
32347;SDS011;18821;44.800;10.326;2023-04-06T10:35:52;7.32;;;3.33;;
32347;SDS011;18821;44.800;10.326;2023-04-06T10:38:21;6.30;;;3.28;;
32347;SDS011;18821;44.800;10.326;2023-04-06T10:41:06;4.88;;;3.33;;
32347;SDS011;18821;44.800;10.326;2023-04-06T10:43:34;5.60;;;3.40;;
32347;SDS011;18821;44.800;10.326;2023-04-06T10:46:02;5.55;;;3.47;;
32347;SDS011;18821;44.800;10.326;2023-04-06T10:48:39;7.50;;;3.80;;
32347;SDS011;18821;44.800;10.326;2023-04-06T10:51:10;5.90;;;3.78;;
32347;SDS011;18821;44.800;10.326;2023-04-06T10:53:43;6.32;;;3.65;;
32347;SDS011;18821;44.800;10.326;2023-04-06T10:56:12;5.18;;;3.42;;
32347;SDS011;18821;44.800;10.326;2023-04-06T10:58:49;5.50;;;3.90;;
32347;SDS011;18821;44.800;10.326;2023-04-06T11:01:21;7.63;;;4.43;;
32347;SDS011;18821;44.800;10.326;2023-04-06T11:03:48;8.07;;;4.40;;
32347;SDS011;18821;44.800;10.326;2023-04-06T11:06:22;6.65;;;4.55;;
32347;SDS011;18821;44.800;10.326;2023-04-06T11:08:50;7.85;;;4.03;;
32347;SDS011;18821;44.800;10.326;2023-04-06T11:11:18;6.60;;;4.05;;
32347;SDS011;18821;44.800;10.326;2023-04-06T11:13:46;7.70;;;4.60;;
32347;SDS011;18821;44.800;10.326;2023-04-06T11:18:57;7.82;;;4.35;;
32347;SDS011;18821;44.800;10.326;2023-04-06T11:21:36;8.55;;;4.40;;
32347;SDS011;18821;44.800;10.326;2023-04-06T11:29:11;8.93;;;4.90;;
32347;SDS011;18821;44.800;10.326;2023-04-06T11:31:45;8.70;;;4.80;;
32347;SDS011;18821;44.800;10.326;2023-04-06T11:34:19;8.02;;;5.55;;
32347;SDS011;18821;44.800;10.326;2023-04-06T11:36:47;7.30;;;4.68;;
32347;SDS011;18821;44.800;10.326;2023-04-06T11:39:18;6.25;;;4.63;;
32347;SDS011;18821;44.800;10.326;2023-04-06T11:41:51;7.47;;;5.05;;
32347;SDS011;18821;44.800;10.326;2023-04-06T11:47:00;12.35;;;5.40;;
32347;SDS011;18821;44.800;10.326;2023-04-06T11:49:31;10.80;;;4.88;;
32347;SDS011;18821;44.800;10.326;2023-04-06T11:51:58;7.97;;;5.35;;
32347;SDS011;18821;44.800;10.326;2023-04-06T11:56:58;10.27;;;5.70;;
32347;SDS011;18821;44.800;10.326;2023-04-06T11:59:24;8.65;;;5.68;;
32347;SDS011;18821;44.800;10.326;2023-04-06T12:01:50;7.85;;;5.65;;
32347;SDS011;18821;44.800;10.326;2023-04-06T12:04:17;9.13;;;5.07;;
32347;SDS011;18821;44.800;10.326;2023-04-06T12:06:43;8.73;;;5.57;;
32347;SDS011;18821;44.800;10.326;2023-04-06T12:09:09;6.90;;;4.88;;
32347;SDS011;18821;44.800;10.326;2023-04-06T12:11:35;9.32;;;5.60;;
32347;SDS011;18821;44.800;10.326;2023-04-06T12:14:01;10.20;;;5.78;;
32347;SDS011;18821;44.800;10.326;2023-04-06T12:16:33;12.48;;;5.40;;
32347;SDS011;18821;44.800;10.326;2023-04-06T12:18:59;9.82;;;5.80;;
32347;SDS011;18821;44.800;10.326;2023-04-06T12:21:26;9.45;;;5.30;;
32347;SDS011;18821;44.800;10.326;2023-04-06T12:23:53;9.65;;;5.40;;
32347;SDS011;18821;44.800;10.326;2023-04-06T12:26:20;9.45;;;5.93;;
32347;SDS011;18821;44.800;10.326;2023-04-06T12:28:46;9.38;;;5.93;;
32347;SDS011;18821;44.800;10.326;2023-04-06T12:31:19;13.40;;;7.30;;
32347;SDS011;18821;44.800;10.326;2023-04-06T12:33:48;10.40;;;6.43;;
32347;SDS011;18821;44.800;10.326;2023-04-06T12:36:18;10.15;;;5.57;;
32347;SDS011;18821;44.800;10.326;2023-04-06T12:38:46;11.35;;;5.55;;
32347;SDS011;18821;44.800;10.326;2023-04-06T12:41:13;12.65;;;6.30;;
32347;SDS011;18821;44.800;10.326;2023-04-06T12:43:43;12.75;;;6.22;;
32347;SDS011;18821;44.800;10.326;2023-04-06T12:46:10;10.15;;;6.35;;
32347;SDS011;18821;44.800;10.326;2023-04-06T12:48:36;11.07;;;5.97;;
32347;SDS011;18821;44.800;10.326;2023-04-06T12:51:03;9.45;;;5.35;;
32347;SDS011;18821;44.800;10.326;2023-04-06T12:53:30;12.00;;;6.53;;
32347;SDS011;18821;44.800;10.326;2023-04-06T12:55:57;9.10;;;5.28;;
32347;SDS011;18821;44.800;10.326;2023-04-06T12:58:24;12.52;;;6.43;;
32347;SDS011;18821;44.800;10.326;2023-04-06T13:00:54;10.35;;;6.18;;
32347;SDS011;18821;44.800;10.326;2023-04-06T13:03:21;10.27;;;6.55;;
32347;SDS011;18821;44.800;10.326;2023-04-06T13:05:48;12.32;;;6.28;;
32347;SDS011;18821;44.800;10.326;2023-04-06T13:08:18;9.88;;;5.38;;
32347;SDS011;18821;44.800;10.326;2023-04-06T13:10:49;9.60;;;5.75;;
32347;SDS011;18821;44.800;10.326;2023-04-06T13:13:17;7.78;;;5.63;;
32347;SDS011;18821;44.800;10.326;2023-04-06T13:15:47;12.05;;;6.85;;
32347;SDS011;18821;44.800;10.326;2023-04-06T13:18:13;9.68;;;5.85;;
32347;SDS011;18821;44.800;10.326;2023-04-06T13:20:39;11.65;;;6.70;;
32347;SDS011;18821;44.800;10.326;2023-04-06T13:23:05;16.60;;;7.60;;
32347;SDS011;18821;44.800;10.326;2023-04-06T13:25:31;9.30;;;6.90;;
32347;SDS011;18821;44.800;10.326;2023-04-06T13:27:58;11.90;;;7.07;;
32347;SDS011;18821;44.800;10.326;2023-04-06T13:30:24;17.20;;;5.82;;
32347;SDS011;18821;44.800;10.326;2023-04-06T13:32:50;11.30;;;6.97;;
32347;SDS011;18821;44.800;10.326;2023-04-06T13:35:16;14.20;;;6.70;;
32347;SDS011;18821;44.800;10.326;2023-04-06T13:37:43;10.02;;;6.13;;
32347;SDS011;18821;44.800;10.326;2023-04-06T13:40:09;11.23;;;6.65;;
32347;SDS011;18821;44.800;10.326;2023-04-06T13:42:36;10.32;;;7.07;;
32347;SDS011;18821;44.800;10.326;2023-04-06T13:45:05;11.10;;;6.50;;
32347;SDS011;18821;44.800;10.326;2023-04-06T13:47:32;12.95;;;7.10;;
32347;SDS011;18821;44.800;10.326;2023-04-06T13:49:58;11.55;;;7.15;;
32347;SDS011;18821;44.800;10.326;2023-04-06T13:52:24;11.55;;;7.60;;
32347;SDS011;18821;44.800;10.326;2023-04-06T13:54:50;11.88;;;6.47;;
32347;SDS011;18821;44.800;10.326;2023-04-06T13:57:16;8.85;;;6.53;;
32347;SDS011;18821;44.800;10.326;2023-04-06T13:59:42;10.68;;;6.63;;
32347;SDS011;18821;44.800;10.326;2023-04-06T14:02:08;12.32;;;6.95;;
32347;SDS011;18821;44.800;10.326;2023-04-06T14:04:35;9.93;;;6.55;;
32347;SDS011;18821;44.800;10.326;2023-04-06T14:07:02;9.48;;;7.13;;
32347;SDS011;18821;44.800;10.326;2023-04-06T14:09:28;12.30;;;7.00;;
32347;SDS011;18821;44.800;10.326;2023-04-06T14:11:55;11.13;;;6.35;;
32347;SDS011;18821;44.800;10.326;2023-04-06T14:14:22;9.07;;;6.50;;
32347;SDS011;18821;44.800;10.326;2023-04-06T14:16:48;9.65;;;6.22;;
32347;SDS011;18821;44.800;10.326;2023-04-06T14:19:15;12.15;;;6.95;;
32347;SDS011;18821;44.800;10.326;2023-04-06T14:21:45;10.40;;;7.20;;
32347;SDS011;18821;44.800;10.326;2023-04-06T14:24:12;10.25;;;6.78;;
32347;SDS011;18821;44.800;10.326;2023-04-06T14:26:39;11.07;;;6.72;;
32347;SDS011;18821;44.800;10.326;2023-04-06T14:29:09;9.65;;;6.40;;
32347;SDS011;18821;44.800;10.326;2023-04-06T14:31:36;9.13;;;6.63;;
32347;SDS011;18821;44.800;10.326;2023-04-06T14:34:02;9.45;;;6.05;;
32347;SDS011;18821;44.800;10.326;2023-04-06T14:36:30;8.63;;;6.28;;
32347;SDS011;18821;44.800;10.326;2023-04-06T14:39:02;11.45;;;6.30;;
32347;SDS011;18821;44.800;10.326;2023-04-06T14:41:30;9.18;;;5.75;;
32347;SDS011;18821;44.800;10.326;2023-04-06T14:43:56;9.10;;;6.13;;
32347;SDS011;18821;44.800;10.326;2023-04-06T14:46:22;12.45;;;6.63;;
32347;SDS011;18821;44.800;10.326;2023-04-06T14:48:48;8.85;;;5.70;;
32347;SDS011;18821;44.800;10.326;2023-04-06T14:51:14;9.40;;;6.07;;
32347;SDS011;18821;44.800;10.326;2023-04-06T14:53:42;9.55;;;5.75;;